sensor_id;sensor_type;location;lat;lon;timestamp;pressure;altitude;pressure_sealevel;temperature;humidity
10732;BME280;74907;42.812;23.216;2024-01-30T00:01:12;97490.97;;;-1.11;73.42
10732;BME280;74907;42.812;23.216;2024-01-30T00:03:38;97485.81;;;-1.16;73.28
10732;BME280;74907;42.812;23.216;2024-01-30T00:06:05;97493.41;;;-1.20;73.34
10732;BME280;74907;42.812;23.216;2024-01-30T00:08:34;97497.66;;;-1.21;73.16
10732;BME280;74907;42.812;23.216;2024-01-30T00:11:00;97491.66;;;-1.23;73.44
10732;BME280;74907;42.812;23.216;2024-01-30T00:13:27;97493.31;;;-1.27;73.72
10732;BME280;74907;42.812;23.216;2024-01-30T00:15:54;97492.44;;;-1.29;73.27
10732;BME280;74907;42.812;23.216;2024-01-30T00:18:21;97498.38;;;-1.31;72.74
10732;BME280;74907;42.812;23.216;2024-01-30T00:20:48;97499.13;;;-1.38;73.03
10732;BME280;74907;42.812;23.216;2024-01-30T00:23:14;97500.75;;;-1.43;73.79
10732;BME280;74907;42.812;23.216;2024-01-30T00:25:42;97499.06;;;-1.41;73.54
10732;BME280;74907;42.812;23.216;2024-01-30T00:28:09;97492.28;;;-1.39;74.19
10732;BME280;74907;42.812;23.216;2024-01-30T00:30:36;97500.75;;;-1.43;74.30
10732;BME280;74907;42.812;23.216;2024-01-30T00:33:03;97498.97;;;-1.47;74.38
10732;BME280;74907;42.812;23.216;2024-01-30T00:35:30;97505.81;;;-1.46;74.36
10732;BME280;74907;42.812;23.216;2024-01-30T00:37:57;97499.69;;;-1.56;75.03
10732;BME280;74907;42.812;23.216;2024-01-30T00:40:23;97501.31;;;-1.60;75.23
10732;BME280;74907;42.812;23.216;2024-01-30T00:42:51;97500.38;;;-1.65;76.02
10732;BME280;74907;42.812;23.216;2024-01-30T00:45:18;97498.59;;;-1.70;76.05
10732;BME280;74907;42.812;23.216;2024-01-30T00:47:45;97496.00;;;-1.73;76.59
10732;BME280;74907;42.812;23.216;2024-01-30T00:50:12;97498.50;;;-1.76;76.53
10732;BME280;74907;42.812;23.216;2024-01-30T00:52:39;97491.59;;;-1.83;76.37
10732;BME280;74907;42.812;23.216;2024-01-30T00:55:07;97495.72;;;-1.90;77.15
10732;BME280;74907;42.812;23.216;2024-01-30T00:57:34;97499.13;;;-1.89;77.03
10732;BME280;74907;42.812;23.216;2024-01-30T01:00:02;97499.97;;;-1.91;76.77
10732;BME280;74907;42.812;23.216;2024-01-30T01:02:31;97499.91;;;-1.95;76.93
10732;BME280;74907;42.812;23.216;2024-01-30T01:04:58;97494.75;;;-1.98;76.93
10732;BME280;74907;42.812;23.216;2024-01-30T01:07:25;97499.84;;;-1.98;76.92
10732;BME280;74907;42.812;23.216;2024-01-30T01:09:51;97499.81;;;-2.00;76.65
10732;BME280;74907;42.812;23.216;2024-01-30T01:12:18;97498.09;;;-2.02;77.35
10732;BME280;74907;42.812;23.216;2024-01-30T01:14:45;97503.84;;;-2.11;77.01
10732;BME280;74907;42.812;23.216;2024-01-30T01:17:13;97501.28;;;-2.12;77.40
10732;BME280;74907;42.812;23.216;2024-01-30T01:19:40;97500.41;;;-2.13;77.17
10732;BME280;74907;42.812;23.216;2024-01-30T01:22:07;97491.13;;;-2.09;77.65
10732;BME280;74907;42.812;23.216;2024-01-30T01:24:33;97492.09;;;-2.04;77.17
10732;BME280;74907;42.812;23.216;2024-01-30T01:27:00;97492.22;;;-1.97;77.13
10732;BME280;74907;42.812;23.216;2024-01-30T01:29:27;97499.09;;;-1.93;76.64
10732;BME280;74907;42.812;23.216;2024-01-30T01:31:55;97487.16;;;-1.94;76.97
10732;BME280;74907;42.812;23.216;2024-01-30T01:34:23;97490.56;;;-1.95;76.84
10732;BME280;74907;42.812;23.216;2024-01-30T01:36:50;97493.91;;;-1.97;77.26
10732;BME280;74907;42.812;23.216;2024-01-30T01:39:17;97489.66;;;-1.98;76.90
10732;BME280;74907;42.812;23.216;2024-01-30T01:41:44;97494.75;;;-1.98;76.84
10732;BME280;74907;42.812;23.216;2024-01-30T01:44:10;97481.22;;;-1.93;76.73
10732;BME280;74907;42.812;23.216;2024-01-30T01:46:37;97488.81;;;-1.97;76.94
10732;BME280;74907;42.812;23.216;2024-01-30T01:49:04;97482.75;;;-2.04;76.82
10732;BME280;74907;42.812;23.216;2024-01-30T01:51:34;97488.75;;;-2.00;76.67
10732;BME280;74907;42.812;23.216;2024-01-30T01:54:03;97482.81;;;-1.99;77.19
10732;BME280;74907;42.812;23.216;2024-01-30T01:56:31;97494.66;;;-2.03;76.76
10732;BME280;74907;42.812;23.216;2024-01-30T01:59:00;97498.91;;;-2.03;76.98
10732;BME280;74907;42.812;23.216;2024-01-30T02:01:31;97497.22;;;-2.03;76.61
10732;BME280;74907;42.812;23.216;2024-01-30T02:03:59;97487.84;;;-2.04;77.23
10732;BME280;74907;42.812;23.216;2024-01-30T02:06:26;97498.22;;;-1.93;77.26
10732;BME280;74907;42.812;23.216;2024-01-30T02:08:54;97493.06;;;-1.96;77.61
10732;BME280;74907;42.812;23.216;2024-01-30T02:11:22;97493.97;;;-1.94;77.52
10732;BME280;74907;42.812;23.216;2024-01-30T02:13:49;97494.03;;;-1.89;77.68
10732;BME280;74907;42.812;23.216;2024-01-30T02:16:16;97500.19;;;-1.77;77.86
10732;BME280;74907;42.812;23.216;2024-01-30T02:18:43;97500.38;;;-1.66;77.82
10732;BME280;74907;42.812;23.216;2024-01-30T02:21:14;97502.38;;;-1.48;77.45
10732;BME280;74907;42.812;23.216;2024-01-30T02:23:41;97504.94;;;-1.48;76.67
10732;BME280;74907;42.812;23.216;2024-01-30T02:26:09;97500.63;;;-1.51;77.10
10732;BME280;74907;42.812;23.216;2024-01-30T02:28:36;97498.03;;;-1.54;77.36
10732;BME280;74907;42.812;23.216;2024-01-30T02:31:03;97492.94;;;-1.52;77.00
10732;BME280;74907;42.812;23.216;2024-01-30T02:33:30;97499.09;;;-1.40;76.75
10732;BME280;74907;42.812;23.216;2024-01-30T02:35:57;97492.41;;;-1.32;76.45
10732;BME280;74907;42.812;23.216;2024-01-30T02:38:25;97484.72;;;-1.33;76.19
10732;BME280;74907;42.812;23.216;2024-01-30T02:40:52;97488.28;;;-1.20;75.52
10732;BME280;74907;42.812;23.216;2024-01-30T02:43:18;97488.25;;;-1.23;75.49
10732;BME280;74907;42.812;23.216;2024-01-30T02:45:45;97485.91;;;-1.07;74.56
10732;BME280;74907;42.812;23.216;2024-01-30T02:48:12;97496.22;;;-1.04;74.26
10732;BME280;74907;42.812;23.216;2024-01-30T02:50:39;97491.13;;;-1.02;74.05
10732;BME280;74907;42.812;23.216;2024-01-30T02:53:05;97486.75;;;-1.09;73.93
10732;BME280;74907;42.812;23.216;2024-01-30T02:55:34;97488.69;;;-0.91;74.01
10732;BME280;74907;42.812;23.216;2024-01-30T02:58:01;97487.78;;;-0.97;72.99
10732;BME280;74907;42.812;23.216;2024-01-30T03:00:28;97489.47;;;-0.97;73.17
10732;BME280;74907;42.812;23.216;2024-01-30T03:02:55;97490.31;;;-0.98;73.20
10732;BME280;74907;42.812;23.216;2024-01-30T03:05:21;97486.84;;;-1.03;73.54
10732;BME280;74907;42.812;23.216;2024-01-30T03:07:48;97489.50;;;-0.96;73.46
10732;BME280;74907;42.812;23.216;2024-01-30T03:10:15;97481.00;;;-0.93;73.03
10732;BME280;74907;42.812;23.216;2024-01-30T03:12:43;97488.66;;;-0.94;73.28
10732;BME280;74907;42.812;23.216;2024-01-30T03:15:09;97481.88;;;-0.92;73.44
10732;BME280;74907;42.812;23.216;2024-01-30T03:17:36;97482.72;;;-0.93;72.56
10732;BME280;74907;42.812;23.216;2024-01-30T03:20:03;97486.97;;;-0.94;72.38
10732;BME280;74907;42.812;23.216;2024-01-30T03:22:31;97480.28;;;-0.84;70.65
10732;BME280;74907;42.812;23.216;2024-01-30T03:24:58;97483.63;;;-0.88;71.42
10732;BME280;74907;42.812;23.216;2024-01-30T03:27:25;97479.34;;;-0.89;70.42
10732;BME280;74907;42.812;23.216;2024-01-30T03:29:53;97464.88;;;-0.89;69.29
10732;BME280;74907;42.812;23.216;2024-01-30T03:32:19;97476.81;;;-0.88;68.82
10732;BME280;74907;42.812;23.216;2024-01-30T03:34:46;97470.88;;;-0.85;68.47
10732;BME280;74907;42.812;23.216;2024-01-30T03:37:13;97475.13;;;-0.86;68.18
10732;BME280;74907;42.812;23.216;2024-01-30T03:39:39;97462.47;;;-0.77;66.68
10732;BME280;74907;42.812;23.216;2024-01-30T03:42:06;97470.22;;;-0.68;66.21
10732;BME280;74907;42.812;23.216;2024-01-30T03:44:33;97465.09;;;-0.71;65.96
10732;BME280;74907;42.812;23.216;2024-01-30T03:47:01;97465.91;;;-0.73;66.51
10732;BME280;74907;42.812;23.216;2024-01-30T03:49:27;97472.69;;;-0.77;66.38
10732;BME280;74907;42.812;23.216;2024-01-30T03:51:54;97460.75;;;-0.76;66.77
10732;BME280;74907;42.812;23.216;2024-01-30T03:54:21;97459.94;;;-0.74;67.39
10732;BME280;74907;42.812;23.216;2024-01-30T03:56:47;97465.00;;;-0.78;67.18
10732;BME280;74907;42.812;23.216;2024-01-30T03:59:14;97456.44;;;-0.82;67.56
10732;BME280;74907;42.812;23.216;2024-01-30T04:01:41;97455.53;;;-0.87;68.81
10732;BME280;74907;42.812;23.216;2024-01-30T04:04:09;97453.75;;;-0.92;69.32
10732;BME280;74907;42.812;23.216;2024-01-30T04:06:36;97459.66;;;-0.97;70.04
10732;BME280;74907;42.812;23.216;2024-01-30T04:09:03;97456.94;;;-1.09;70.67
10732;BME280;74907;42.812;23.216;2024-01-30T04:11:30;97453.50;;;-1.11;71.32
10732;BME280;74907;42.812;23.216;2024-01-30T04:13:56;97457.72;;;-1.13;71.94
10732;BME280;74907;42.812;23.216;2024-01-30T04:16:23;97461.97;;;-1.13;72.49
10732;BME280;74907;42.812;23.216;2024-01-30T04:18:51;97463.56;;;-1.21;73.17
10732;BME280;74907;42.812;23.216;2024-01-30T04:21:20;97465.09;;;-1.36;73.81
10732;BME280;74907;42.812;23.216;2024-01-30T04:23:47;97455.69;;;-1.38;73.79
10732;BME280;74907;42.812;23.216;2024-01-30T04:26:13;97467.63;;;-1.37;73.54
10732;BME280;74907;42.812;23.216;2024-01-30T04:28:41;97462.41;;;-1.45;74.55
10732;BME280;74907;42.812;23.216;2024-01-30T04:31:08;97470.81;;;-1.53;73.96
10732;BME280;74907;42.812;23.216;2024-01-30T04:33:34;97469.16;;;-1.50;73.91
10732;BME280;74907;42.812;23.216;2024-01-30T04:36:01;97464.03;;;-1.51;73.90
10732;BME280;74907;42.812;23.216;2024-01-30T04:38:29;97467.38;;;-1.54;73.91
10732;BME280;74907;42.812;23.216;2024-01-30T04:40:56;97472.41;;;-1.57;74.14
10732;BME280;74907;42.812;23.216;2024-01-30T04:43:23;97474.94;;;-1.59;74.32
10732;BME280;74907;42.812;23.216;2024-01-30T04:45:51;97481.66;;;-1.65;74.76
10732;BME280;74907;42.812;23.216;2024-01-30T04:48:18;97486.66;;;-1.71;75.13
10732;BME280;74907;42.812;23.216;2024-01-30T04:50:45;97497.69;;;-1.74;75.79
10732;BME280;74907;42.812;23.216;2024-01-30T04:53:11;97491.69;;;-1.76;75.81
10732;BME280;74907;42.812;23.216;2024-01-30T04:55:40;97485.78;;;-1.73;75.61
10732;BME280;74907;42.812;23.216;2024-01-30T04:58:06;97486.53;;;-1.80;75.68
10732;BME280;74907;42.812;23.216;2024-01-30T05:00:33;97496.84;;;-1.74;75.61
10732;BME280;74907;42.812;23.216;2024-01-30T05:03:00;97485.53;;;-1.88;75.95
10732;BME280;74907;42.812;23.216;2024-01-30T05:05:27;97490.56;;;-1.93;76.40
10732;BME280;74907;42.812;23.216;2024-01-30T05:07:53;97492.22;;;-1.97;76.69
10732;BME280;74907;42.812;23.216;2024-01-30T05:10:20;97494.06;;;-1.88;76.74
10732;BME280;74907;42.812;23.216;2024-01-30T05:12:48;97504.25;;;-1.89;76.78
10732;BME280;74907;42.812;23.216;2024-01-30T05:15:15;97499.03;;;-1.96;76.33
10732;BME280;74907;42.812;23.216;2024-01-30T05:17:42;97505.78;;;-1.99;76.63
10732;BME280;74907;42.812;23.216;2024-01-30T05:20:10;97498.09;;;-2.02;77.15
10732;BME280;74907;42.812;23.216;2024-01-30T05:22:37;97502.28;;;-2.06;76.76
10732;BME280;74907;42.812;23.216;2024-01-30T05:25:10;97504.72;;;-2.10;77.55
10732;BME280;74907;42.812;23.216;2024-01-30T05:27:37;97503.81;;;-2.14;77.90
10732;BME280;74907;42.812;23.216;2024-01-30T05:30:06;97507.97;;;-2.19;77.92
10732;BME280;74907;42.812;23.216;2024-01-30T05:32:33;97505.34;;;-2.24;77.82
10732;BME280;74907;42.812;23.216;2024-01-30T05:34:59;97511.25;;;-2.26;78.79
10732;BME280;74907;42.812;23.216;2024-01-30T05:37:26;97507.78;;;-2.30;78.20
10732;BME280;74907;42.812;23.216;2024-01-30T05:39:53;97503.47;;;-2.32;78.26
10732;BME280;74907;42.812;23.216;2024-01-30T05:42:19;97511.03;;;-2.37;78.88
10732;BME280;74907;42.812;23.216;2024-01-30T05:44:46;97499.97;;;-2.37;78.77
10732;BME280;74907;42.812;23.216;2024-01-30T05:47:14;97512.00;;;-2.30;78.64
10732;BME280;74907;42.812;23.216;2024-01-30T05:49:41;97504.25;;;-2.36;79.06
10732;BME280;74907;42.812;23.216;2024-01-30T05:52:08;97513.59;;;-2.37;78.90
10732;BME280;74907;42.812;23.216;2024-01-30T05:54:35;97507.75;;;-2.31;78.78
10732;BME280;74907;42.812;23.216;2024-01-30T05:57:02;97510.50;;;-2.19;78.95
10732;BME280;74907;42.812;23.216;2024-01-30T05:59:29;97519.03;;;-2.18;78.97
10732;BME280;74907;42.812;23.216;2024-01-30T06:01:55;97520.06;;;-2.09;78.86
10732;BME280;74907;42.812;23.216;2024-01-30T06:04:23;97509.31;;;-1.93;78.54
10732;BME280;74907;42.812;23.216;2024-01-30T06:06:50;97513.00;;;-1.75;77.79
10732;BME280;74907;42.812;23.216;2024-01-30T06:09:17;97506.00;;;-1.33;77.87
10732;BME280;74907;42.812;23.216;2024-01-30T06:11:44;97510.09;;;-0.85;76.10
10732;BME280;74907;42.812;23.216;2024-01-30T06:14:11;97513.19;;;-0.41;73.37
10732;BME280;74907;42.812;23.216;2024-01-30T06:16:38;97507.75;;;0.08;71.03
10732;BME280;74907;42.812;23.216;2024-01-30T06:19:05;97505.44;;;0.40;68.32
10732;BME280;74907;42.812;23.216;2024-01-30T06:21:33;97505.72;;;0.72;67.70
10732;BME280;74907;42.812;23.216;2024-01-30T06:24:02;97506.88;;;1.25;65.57
10732;BME280;74907;42.812;23.216;2024-01-30T06:26:28;97505.22;;;1.40;64.87
10732;BME280;74907;42.812;23.216;2024-01-30T06:28:55;97502.84;;;1.99;60.94
10732;BME280;74907;42.812;23.216;2024-01-30T06:31:22;97503.69;;;1.84;59.36
10732;BME280;74907;42.812;23.216;2024-01-30T06:33:49;97505.41;;;1.84;60.53
10732;BME280;74907;42.812;23.216;2024-01-30T06:36:16;97502.84;;;1.98;60.24
10732;BME280;74907;42.812;23.216;2024-01-30T06:38:44;97493.50;;;2.19;60.82
10732;BME280;74907;42.812;23.216;2024-01-30T06:41:11;97506.34;;;2.26;58.42
10732;BME280;74907;42.812;23.216;2024-01-30T06:43:37;97504.66;;;2.66;58.19
10732;BME280;74907;42.812;23.216;2024-01-30T06:46:04;97502.94;;;2.66;57.60
10732;BME280;74907;42.812;23.216;2024-01-30T06:48:31;97497.72;;;3.01;55.23
10732;BME280;74907;42.812;23.216;2024-01-30T06:50:57;97508.00;;;3.15;56.25
10732;BME280;74907;42.812;23.216;2024-01-30T06:53:24;97500.28;;;3.23;54.71
10732;BME280;74907;42.812;23.216;2024-01-30T06:55:53;97501.00;;;3.52;53.19
10732;BME280;74907;42.812;23.216;2024-01-30T06:58:19;97501.06;;;3.40;54.01
10732;BME280;74907;42.812;23.216;2024-01-30T07:00:46;97502.72;;;3.53;53.81
10732;BME280;74907;42.812;23.216;2024-01-30T07:03:13;97500.88;;;3.86;51.75
10732;BME280;74907;42.812;23.216;2024-01-30T07:05:40;97500.84;;;3.89;50.66
10732;BME280;74907;42.812;23.216;2024-01-30T07:08:06;97495.59;;;4.07;50.49
10732;BME280;74907;42.812;23.216;2024-01-30T07:10:33;97500.69;;;4.16;51.01
10732;BME280;74907;42.812;23.216;2024-01-30T07:13:02;97501.56;;;4.17;50.51
10732;BME280;74907;42.812;23.216;2024-01-30T07:15:29;97491.94;;;4.38;51.04
10732;BME280;74907;42.812;23.216;2024-01-30T07:17:56;97498.69;;;4.55;50.06
10732;BME280;74907;42.812;23.216;2024-01-30T07:20:22;97505.56;;;4.56;47.43
10732;BME280;74907;42.812;23.216;2024-01-30T07:22:49;97502.03;;;4.64;47.45
10732;BME280;74907;42.812;23.216;2024-01-30T07:25:15;97497.78;;;4.62;47.21
10732;BME280;74907;42.812;23.216;2024-01-30T07:27:42;97497.91;;;4.45;47.79
10732;BME280;74907;42.812;23.216;2024-01-30T07:30:11;97491.88;;;4.46;47.48
10732;BME280;74907;42.812;23.216;2024-01-30T07:32:38;97498.38;;;4.93;47.15
10732;BME280;74907;42.812;23.216;2024-01-30T07:35:05;97499.78;;;5.24;46.62
10732;BME280;74907;42.812;23.216;2024-01-30T07:37:31;97498.63;;;5.51;45.17
10732;BME280;74907;42.812;23.216;2024-01-30T07:39:58;97501.59;;;5.15;45.72
10732;BME280;74907;42.812;23.216;2024-01-30T07:42:25;97502.91;;;5.52;44.03
10732;BME280;74907;42.812;23.216;2024-01-30T07:44:51;97493.28;;;5.63;43.34
10732;BME280;74907;42.812;23.216;2024-01-30T07:47:20;97491.78;;;5.47;43.24
10732;BME280;74907;42.812;23.216;2024-01-30T07:49:46;97484.22;;;5.30;43.24
10732;BME280;74907;42.812;23.216;2024-01-30T07:52:13;97492.81;;;5.32;43.97
10732;BME280;74907;42.812;23.216;2024-01-30T07:54:49;97490.28;;;5.28;44.10
10732;BME280;74907;42.812;23.216;2024-01-30T07:57:16;97487.59;;;5.37;44.10
10732;BME280;74907;42.812;23.216;2024-01-30T07:59:43;97490.34;;;5.23;42.99
10732;BME280;74907;42.812;23.216;2024-01-30T08:02:11;97491.03;;;4.44;44.09
10732;BME280;74907;42.812;23.216;2024-01-30T08:04:40;97487.91;;;4.01;45.70
10732;BME280;74907;42.812;23.216;2024-01-30T08:07:06;97489.63;;;3.97;45.80
10732;BME280;74907;42.812;23.216;2024-01-30T08:09:33;97495.47;;;4.28;45.32
10732;BME280;74907;42.812;23.216;2024-01-30T08:12:00;97484.19;;;4.41;44.75
10732;BME280;74907;42.812;23.216;2024-01-30T08:14:26;97491.59;;;4.81;45.16
10732;BME280;74907;42.812;23.216;2024-01-30T08:16:53;97483.22;;;4.53;45.69
10732;BME280;74907;42.812;23.216;2024-01-30T08:19:20;97486.41;;;4.84;46.14
10732;BME280;74907;42.812;23.216;2024-01-30T08:21:48;97484.22;;;4.38;45.93
10732;BME280;74907;42.812;23.216;2024-01-30T08:24:16;97483.28;;;4.47;44.94
10732;BME280;74907;42.812;23.216;2024-01-30T08:26:43;97486.06;;;4.23;46.31
10732;BME280;74907;42.812;23.216;2024-01-30T08:29:10;97491.19;;;4.24;46.46
10732;BME280;74907;42.812;23.216;2024-01-30T08:31:37;97490.47;;;3.99;46.90
10732;BME280;74907;42.812;23.216;2024-01-30T08:34:03;97495.91;;;3.41;46.83
10732;BME280;74907;42.812;23.216;2024-01-30T08:36:30;97503.75;;;2.99;48.24
10732;BME280;74907;42.812;23.216;2024-01-30T08:38:58;97498.56;;;3.09;48.37
10732;BME280;74907;42.812;23.216;2024-01-30T08:41:25;97494.31;;;2.96;48.32
10732;BME280;74907;42.812;23.216;2024-01-30T08:43:52;97497.72;;;3.13;48.62
10732;BME280;74907;42.812;23.216;2024-01-30T08:46:19;97496.88;;;2.95;49.08
10732;BME280;74907;42.812;23.216;2024-01-30T08:48:46;97498.63;;;2.79;49.07
10732;BME280;74907;42.812;23.216;2024-01-30T08:51:14;97507.22;;;2.69;49.72
10732;BME280;74907;42.812;23.216;2024-01-30T08:53:40;97510.63;;;2.78;49.60
10732;BME280;74907;42.812;23.216;2024-01-30T08:56:08;97509.78;;;2.81;50.12
10732;BME280;74907;42.812;23.216;2024-01-30T08:58:35;97501.19;;;2.87;51.31
10732;BME280;74907;42.812;23.216;2024-01-30T09:01:02;97500.31;;;2.95;50.69
10732;BME280;74907;42.812;23.216;2024-01-30T09:03:30;97504.59;;;2.99;50.67
10732;BME280;74907;42.812;23.216;2024-01-30T09:05:57;97506.34;;;2.85;50.46
10732;BME280;74907;42.812;23.216;2024-01-30T09:08:24;97514.06;;;2.79;50.25
10732;BME280;74907;42.812;23.216;2024-01-30T09:10:50;97512.34;;;2.78;49.97
10732;BME280;74907;42.812;23.216;2024-01-30T09:13:18;97506.34;;;2.90;51.62
10732;BME280;74907;42.812;23.216;2024-01-30T09:15:45;97525.22;;;2.76;51.06
10732;BME280;74907;42.812;23.216;2024-01-30T09:18:12;97502.94;;;2.68;51.52
10732;BME280;74907;42.812;23.216;2024-01-30T09:20:38;97504.63;;;2.58;50.52
10732;BME280;74907;42.812;23.216;2024-01-30T09:23:05;97499.50;;;2.76;51.92
10732;BME280;74907;42.812;23.216;2024-01-30T09:25:32;97502.91;;;2.91;51.10
10732;BME280;74907;42.812;23.216;2024-01-30T09:27:59;97501.22;;;2.73;51.19
10732;BME280;74907;42.812;23.216;2024-01-30T09:30:27;97499.47;;;2.93;51.99
10732;BME280;74907;42.812;23.216;2024-01-30T09:32:54;97495.13;;;3.12;51.29
10732;BME280;74907;42.812;23.216;2024-01-30T09:35:21;97490.00;;;3.01;51.60
10732;BME280;74907;42.812;23.216;2024-01-30T09:37:47;97493.44;;;2.99;49.88
10732;BME280;74907;42.812;23.216;2024-01-30T09:40:14;97490.94;;;2.73;51.29
10732;BME280;74907;42.812;23.216;2024-01-30T09:42:46;97493.50;;;2.76;50.92
10732;BME280;74907;42.812;23.216;2024-01-30T09:45:14;97490.91;;;2.83;50.70
10732;BME280;74907;42.812;23.216;2024-01-30T09:47:43;97485.78;;;2.71;50.94
10732;BME280;74907;42.812;23.216;2024-01-30T09:50:11;97490.91;;;2.88;51.39
10732;BME280;74907;42.812;23.216;2024-01-30T09:52:39;97491.75;;;2.92;51.45
10732;BME280;74907;42.812;23.216;2024-01-30T09:55:06;97480.56;;;3.06;50.40
10732;BME280;74907;42.812;23.216;2024-01-30T09:57:34;97479.75;;;2.94;49.79
10732;BME280;74907;42.812;23.216;2024-01-30T10:00:02;97487.41;;;3.10;50.85
10732;BME280;74907;42.812;23.216;2024-01-30T10:02:29;97481.41;;;3.07;48.89
10732;BME280;74907;42.812;23.216;2024-01-30T10:04:59;97479.69;;;3.09;49.00
10732;BME280;74907;42.812;23.216;2024-01-30T10:07:26;97475.38;;;3.23;49.51
10732;BME280;74907;42.812;23.216;2024-01-30T10:09:53;97478.00;;;3.15;49.29
10732;BME280;74907;42.812;23.216;2024-01-30T10:12:21;97467.69;;;3.17;49.84
10732;BME280;74907;42.812;23.216;2024-01-30T10:14:48;97466.84;;;3.07;49.15
10732;BME280;74907;42.812;23.216;2024-01-30T10:17:15;97469.50;;;2.66;50.31
10732;BME280;74907;42.812;23.216;2024-01-30T10:19:42;97472.94;;;2.74;49.49
10732;BME280;74907;42.812;23.216;2024-01-30T10:22:10;97463.47;;;2.84;51.19
10732;BME280;74907;42.812;23.216;2024-01-30T10:24:37;97463.44;;;2.96;49.32
10732;BME280;74907;42.812;23.216;2024-01-30T10:27:05;97467.69;;;3.06;49.77
10732;BME280;74907;42.812;23.216;2024-01-30T10:29:32;97465.97;;;3.07;50.04
10732;BME280;74907;42.812;23.216;2024-01-30T10:31:59;97469.41;;;3.16;49.43
10732;BME280;74907;42.812;23.216;2024-01-30T10:34:26;97458.22;;;3.28;49.19
10732;BME280;74907;42.812;23.216;2024-01-30T10:37:01;97466.75;;;3.38;49.62
10732;BME280;74907;42.812;23.216;2024-01-30T10:39:31;97463.31;;;3.37;48.77
10732;BME280;74907;42.812;23.216;2024-01-30T10:42:04;97453.03;;;3.37;49.80
10732;BME280;74907;42.812;23.216;2024-01-30T10:44:37;97456.47;;;3.32;49.15
10732;BME280;74907;42.812;23.216;2024-01-30T10:47:06;97448.81;;;3.10;49.94
10732;BME280;74907;42.812;23.216;2024-01-30T10:49:38;97450.56;;;3.01;50.02
10732;BME280;74907;42.812;23.216;2024-01-30T10:52:06;97451.44;;;2.97;50.50
10732;BME280;74907;42.812;23.216;2024-01-30T10:54:36;97448.00;;;2.98;50.43
10732;BME280;74907;42.812;23.216;2024-01-30T10:57:04;97438.53;;;3.13;49.82
10732;BME280;74907;42.812;23.216;2024-01-30T10:59:32;97435.91;;;3.30;49.99
10732;BME280;74907;42.812;23.216;2024-01-30T11:02:00;97428.97;;;3.41;50.11
10732;BME280;74907;42.812;23.216;2024-01-30T11:04:27;97424.72;;;3.36;49.17
10732;BME280;74907;42.812;23.216;2024-01-30T11:06:54;97432.50;;;3.24;50.27
10732;BME280;74907;42.812;23.216;2024-01-30T11:09:20;97431.63;;;3.28;50.02
10732;BME280;74907;42.812;23.216;2024-01-30T11:11:55;97415.22;;;3.42;49.70
10732;BME280;74907;42.812;23.216;2024-01-30T11:14:25;97416.91;;;3.53;49.24
10732;BME280;74907;42.812;23.216;2024-01-30T11:16:52;97411.78;;;3.46;49.17
10732;BME280;74907;42.812;23.216;2024-01-30T11:19:24;97410.13;;;3.38;50.03
10732;BME280;74907;42.812;23.216;2024-01-30T11:21:52;97410.09;;;3.39;50.11
10732;BME280;74907;42.812;23.216;2024-01-30T11:24:22;97415.22;;;3.44;50.11
10732;BME280;74907;42.812;23.216;2024-01-30T11:26:49;97412.69;;;3.39;49.74
10732;BME280;74907;42.812;23.216;2024-01-30T11:29:18;97403.34;;;3.20;49.97
10732;BME280;74907;42.812;23.216;2024-01-30T11:31:54;97409.38;;;3.14;50.96
10732;BME280;74907;42.812;23.216;2024-01-30T11:34:21;97411.94;;;3.16;50.88
10732;BME280;74907;42.812;23.216;2024-01-30T11:36:52;97413.63;;;3.19;53.01
10732;BME280;74907;42.812;23.216;2024-01-30T11:39:20;97397.31;;;3.26;52.94
10732;BME280;74907;42.812;23.216;2024-01-30T11:41:50;97407.53;;;3.38;52.25
10732;BME280;74907;42.812;23.216;2024-01-30T11:44:20;97388.63;;;3.43;51.70
10732;BME280;74907;42.812;23.216;2024-01-30T11:46:47;97395.44;;;3.52;52.88
10732;BME280;74907;42.812;23.216;2024-01-30T11:49:14;97398.88;;;3.49;51.52
10732;BME280;74907;42.812;23.216;2024-01-30T11:51:41;97386.94;;;3.41;52.29
10732;BME280;74907;42.812;23.216;2024-01-30T11:54:08;97391.25;;;3.36;52.01
10732;BME280;74907;42.812;23.216;2024-01-30T11:56:36;97381.84;;;3.27;51.41
10732;BME280;74907;42.812;23.216;2024-01-30T11:59:03;97386.16;;;3.24;51.21
10732;BME280;74907;42.812;23.216;2024-01-30T12:01:31;97374.19;;;3.12;52.30
10732;BME280;74907;42.812;23.216;2024-01-30T12:03:58;97372.53;;;3.00;52.43
10732;BME280;74907;42.812;23.216;2024-01-30T12:06:25;97369.94;;;3.02;53.07
10732;BME280;74907;42.812;23.216;2024-01-30T12:08:57;97373.41;;;2.95;52.76
10732;BME280;74907;42.812;23.216;2024-01-30T12:11:24;97375.09;;;2.97;53.91
10732;BME280;74907;42.812;23.216;2024-01-30T12:13:51;97357.06;;;3.12;52.34
10732;BME280;74907;42.812;23.216;2024-01-30T12:16:18;97359.63;;;3.14;52.76
10732;BME280;74907;42.812;23.216;2024-01-30T12:18:46;97358.75;;;3.10;51.47
10732;BME280;74907;42.812;23.216;2024-01-30T12:21:16;97363.06;;;3.05;52.15
10732;BME280;74907;42.812;23.216;2024-01-30T12:23:43;97357.13;;;2.94;51.91
10732;BME280;74907;42.812;23.216;2024-01-30T12:26:09;97351.09;;;2.97;51.34
10732;BME280;74907;42.812;23.216;2024-01-30T12:28:36;97358.81;;;3.00;52.15
10732;BME280;74907;42.812;23.216;2024-01-30T12:31:03;97351.09;;;2.98;52.69
10732;BME280;74907;42.812;23.216;2024-01-30T12:33:30;97358.78;;;3.04;52.49
10732;BME280;74907;42.812;23.216;2024-01-30T12:36:01;97348.53;;;2.97;51.43
10732;BME280;74907;42.812;23.216;2024-01-30T12:38:28;97344.25;;;2.97;51.86
10732;BME280;74907;42.812;23.216;2024-01-30T12:40:55;97348.50;;;3.00;51.82
10732;BME280;74907;42.812;23.216;2024-01-30T12:43:21;97351.94;;;3.03;51.27
10732;BME280;74907;42.812;23.216;2024-01-30T12:45:48;97341.66;;;2.97;51.50
10732;BME280;74907;42.812;23.216;2024-01-30T12:48:15;97345.88;;;3.09;51.41
10732;BME280;74907;42.812;23.216;2024-01-30T12:50:42;97339.00;;;3.17;52.10
10732;BME280;74907;42.812;23.216;2024-01-30T12:53:10;97335.59;;;3.18;51.15
10732;BME280;74907;42.812;23.216;2024-01-30T12:55:38;97334.72;;;3.21;50.59